createdAt,value
2023-02-27T00:03:29.163Z,70.33
2023-02-27T00:07:13.447Z,70.47
2023-02-27T00:10:56.072Z,71.02
2023-02-27T00:14:38.711Z,71.32
2023-02-27T00:18:21.366Z,70.49
2023-02-27T00:22:04.037Z,71.45
2023-02-27T00:25:48.053Z,71.29
2023-02-27T00:29:30.717Z,71.45
2023-02-27T00:33:13.404Z,71.37
2023-02-27T00:36:56.078Z,71.13
2023-02-27T00:40:38.773Z,71.11
2023-02-27T00:44:22.723Z,71.84
2023-02-27T00:48:05.723Z,71.88
2023-02-27T00:51:48.375Z,72.29
2023-02-27T00:55:31.048Z,72.96
2023-02-27T00:59:13.756Z,72.68
2023-02-27T01:02:57.806Z,72.83
2023-02-27T01:06:40.476Z,73.20
2023-02-27T01:10:23.224Z,73.00
2023-02-27T01:14:06.071Z,73.17
2023-02-27T01:17:49.260Z,73.74
2023-02-27T01:21:33.252Z,73.82
2023-02-27T01:25:16.102Z,74.17
2023-02-27T01:28:58.800Z,74.15
2023-02-27T01:32:41.558Z,74.65
2023-02-27T01:36:24.245Z,74.25
2023-02-27T01:40:09.746Z,74.80
2023-02-27T01:43:57.944Z,74.35
2023-02-27T01:47:43.499Z,73.53
2023-02-27T01:51:27.894Z,73.44
2023-02-27T01:55:13.340Z,73.56
2023-02-27T01:58:58.955Z,72.71
2023-02-27T02:02:44.746Z,72.43
2023-02-27T02:06:29.056Z,73.37
2023-02-27T02:10:14.129Z,72.81
2023-02-27T02:13:58.809Z,72.69
2023-02-27T02:17:48.076Z,72.98
2023-02-27T02:22:24.615Z,73.13
2023-02-27T02:26:36.791Z,72.53
2023-02-27T02:30:45.194Z,72.75
2023-02-27T02:35:01.276Z,72.22
2023-02-27T02:39:02.682Z,71.49
2023-02-27T02:42:50.569Z,71.94
2023-02-27T02:46:37.551Z,72.28
2023-02-27T02:50:25.601Z,72.60
2023-02-27T02:54:13.662Z,72.28
2023-02-27T02:58:02.609Z,72.11
2023-02-27T03:01:49.023Z,71.97
2023-02-27T03:05:34.298Z,72.06
2023-02-27T03:09:20.568Z,72.58
2023-02-27T03:13:05.704Z,72.42
2023-02-27T03:16:50.402Z,72.55
2023-02-27T03:20:35.647Z,72.19
2023-02-27T03:24:24.689Z,72.60
2023-02-27T03:28:10.618Z,72.51
2023-02-27T03:31:57.593Z,72.63
2023-02-27T03:35:44.893Z,72.88
2023-02-27T03:39:38.037Z,72.86
2023-02-27T03:43:26.753Z,72.37
2023-02-27T03:47:09.477Z,72.75
2023-02-27T03:50:52.155Z,73.25
2023-02-27T03:54:38.516Z,72.49
2023-02-27T03:58:21.203Z,72.73
2023-02-27T04:02:06.030Z,72.63
2023-02-27T04:05:48.794Z,71.75
2023-02-27T04:09:44.507Z,72.09
2023-02-27T04:13:47.046Z,71.77
2023-02-27T04:17:30.942Z,72.22
2023-02-27T04:21:20.300Z,73.15
2023-02-27T04:25:27.920Z,72.12
2023-02-27T04:29:16.276Z,72.60
2023-02-27T04:33:05.135Z,72.03
2023-02-27T04:36:49.835Z,72.66
2023-02-27T04:40:37.601Z,71.99
2023-02-27T04:44:22.830Z,71.99
2023-02-27T04:48:09.365Z,72.16
2023-02-27T04:51:54.409Z,71.63
2023-02-27T04:55:42.517Z,71.65
2023-02-27T04:59:27.266Z,71.81
2023-02-27T05:03:13.264Z,71.50
2023-02-27T05:06:56.667Z,71.96
2023-02-27T05:10:44.279Z,71.88
2023-02-27T05:14:30.465Z,72.69
2023-02-27T05:18:15.686Z,72.12
2023-02-27T05:22:03.115Z,72.52
2023-02-27T05:25:50.552Z,72.99
2023-02-27T05:29:37.655Z,73.32
2023-02-27T05:33:22.298Z,71.87
2023-02-27T05:37:09.279Z,72.96
2023-02-27T05:40:58.269Z,72.16
2023-02-27T05:44:43.947Z,72.45
2023-02-27T05:48:29.091Z,72.42
2023-02-27T05:52:14.142Z,72.03
2023-02-27T05:56:00.513Z,71.54
2023-02-27T05:59:47.354Z,72.12
2023-02-27T06:03:32.479Z,71.66
2023-02-27T06:07:15.550Z,71.61
2023-02-27T06:10:59.660Z,72.10
2023-02-27T06:14:42.299Z,72.23
2023-02-27T06:18:24.985Z,72.41
2023-02-27T06:22:07.650Z,72.55
2023-02-27T06:25:50.416Z,72.40
2023-02-27T06:29:34.446Z,72.26
2023-02-27T06:33:17.135Z,71.88
2023-02-27T06:36:59.797Z,70.75
2023-02-27T06:40:42.552Z,70.67
2023-02-27T06:44:25.200Z,71.43
2023-02-27T06:48:10.020Z,71.26
2023-02-27T06:51:52.674Z,70.43
2023-02-27T06:55:35.367Z,70.92
2023-02-27T06:59:17.992Z,70.68
2023-02-27T07:03:03.237Z,70.35
2023-02-27T07:07:34.942Z,69.92
2023-02-27T07:10:49.827Z,70.36
2023-02-27T07:14:32.503Z,69.79
2023-02-27T07:18:15.148Z,69.90
2023-02-27T07:21:59.211Z,69.62
2023-02-27T07:25:41.873Z,68.95
2023-02-27T07:29:24.496Z,69.45
2023-02-27T07:33:07.214Z,68.47
2023-02-27T07:36:50.045Z,68.22
2023-02-27T07:40:34.036Z,68.06
2023-02-27T07:44:16.629Z,68.26
2023-02-27T07:47:59.280Z,86.27
2023-02-27T07:51:43.088Z,66.76
2023-02-27T07:55:25.698Z,64.01
2023-02-27T07:59:09.792Z,64.64
2023-02-27T08:02:52.457Z,65.58
2023-02-27T08:06:35.168Z,65.51
2023-02-27T08:10:18.723Z,65.83
2023-02-27T08:14:02.290Z,65.71
2023-02-27T08:17:47.680Z,65.00
2023-02-27T08:21:30.750Z,66.29
2023-02-27T08:25:13.620Z,64.52
2023-02-27T08:28:56.299Z,65.30
2023-02-27T08:32:39.352Z,63.59
2023-02-27T08:36:23.321Z,62.97
2023-02-27T08:40:07.946Z,62.43
2023-02-27T08:43:50.612Z,63.63
2023-02-27T08:47:33.355Z,63.17
2023-02-27T08:51:16.228Z,63.44
2023-02-27T08:55:00.197Z,62.50
2023-02-27T08:58:42.814Z,63.11
2023-02-27T09:02:26.815Z,62.71
2023-02-27T09:06:09.889Z,63.52
2023-02-27T09:09:52.538Z,60.77
2023-02-27T09:13:37.633Z,60.99
2023-02-27T09:17:20.326Z,61.18
2023-02-27T09:21:03.379Z,60.65
2023-02-27T09:24:46.073Z,60.35
2023-02-27T09:28:28.708Z,60.40
2023-02-27T09:32:12.787Z,60.44
2023-02-27T09:35:55.533Z,60.59
2023-02-27T09:39:38.184Z,60.77
2023-02-27T09:43:23.740Z,62.04
2023-02-27T09:47:07.834Z,62.60
2023-02-27T09:50:52.511Z,65.34
2023-02-27T09:54:35.369Z,67.29
2023-02-27T09:58:30.568Z,66.43
2023-02-27T10:02:23.661Z,66.16
2023-02-27T10:06:22.919Z,64.68
2023-02-27T10:10:14.365Z,64.05
2023-02-27T10:14:01.036Z,62.58
2023-02-27T10:17:48.364Z,61.88
2023-02-27T10:21:35.476Z,61.89
2023-02-27T10:25:31.211Z,61.11
2023-02-27T10:29:21.326Z,60.80
2023-02-27T10:33:09.601Z,60.10
2023-02-27T10:36:54.136Z,60.56
2023-02-27T10:40:39.771Z,60.37
2023-02-27T10:44:24.435Z,59.85
2023-02-27T10:48:08.492Z,59.14
2023-02-27T10:52:08.507Z,58.92
2023-02-27T10:56:00.216Z,58.13
2023-02-27T10:59:42.940Z,57.50
2023-02-27T11:03:28.895Z,55.48
2023-02-27T11:07:14.702Z,54.68
2023-02-27T11:11:00.113Z,55.09
2023-02-27T11:14:50.840Z,54.73
2023-02-27T11:18:34.221Z,54.40
2023-02-27T11:22:20.104Z,54.82
2023-02-27T11:26:11.584Z,53.93
2023-02-27T11:29:59.043Z,53.97
2023-02-27T11:33:50.052Z,52.81
2023-02-27T11:37:36.289Z,52.91
2023-02-27T11:41:19.049Z,54.05
2023-02-27T11:45:03.368Z,53.31
2023-02-27T11:48:49.061Z,52.43
2023-02-27T11:52:35.729Z,53.36
2023-02-27T11:56:22.654Z,53.30
2023-02-27T12:00:09.007Z,52.23
2023-02-27T12:03:54.739Z,52.09
2023-02-27T12:07:42.931Z,51.71
2023-02-27T12:11:29.764Z,51.53
2023-02-27T12:15:21.082Z,53.67
2023-02-27T12:19:08.663Z,52.97
2023-02-27T12:22:54.925Z,53.74
2023-02-27T12:26:39.849Z,54.57
2023-02-27T12:30:24.625Z,54.72
2023-02-27T12:34:15.930Z,54.30
2023-02-27T12:38:00.344Z,54.35
2023-02-27T12:41:48.962Z,54.13
2023-02-27T12:45:54.929Z,52.03
2023-02-27T12:49:43.843Z,51.21
2023-02-27T12:53:49.080Z,51.37
2023-02-27T12:57:47.585Z,52.36
2023-02-27T13:01:40.648Z,52.53
2023-02-27T13:05:32.956Z,51.16
2023-02-27T13:09:27.042Z,50.30
2023-02-27T13:13:16.896Z,52.30
2023-02-27T13:17:05.330Z,53.43
2023-02-27T13:20:51.174Z,53.00
2023-02-27T13:24:35.327Z,52.05
2023-02-27T13:28:20.973Z,52.49
2023-02-27T13:32:13.634Z,51.72
2023-02-27T13:36:06.217Z,51.20
2023-02-27T13:39:56.683Z,51.95
2023-02-27T13:43:51.436Z,52.54
2023-02-27T13:47:44.621Z,52.22
2023-02-27T13:51:46.218Z,52.98
2023-02-27T13:55:35.201Z,53.01
2023-02-27T13:59:22.527Z,53.68
2023-02-27T14:03:08.208Z,53.88
2023-02-27T14:06:51.177Z,53.85
2023-02-27T14:10:37.100Z,53.19
2023-02-27T14:14:41.777Z,52.53
2023-02-27T14:18:54.720Z,53.77
2023-02-27T14:23:09.267Z,53.21
2023-02-27T14:26:54.605Z,53.51
2023-02-27T14:30:40.737Z,53.09
2023-02-27T14:34:23.979Z,53.30
2023-02-27T14:38:11.314Z,53.79
2023-02-27T14:42:03.842Z,54.01
2023-02-27T14:45:46.561Z,54.48
2023-02-27T14:49:30.858Z,53.57
2023-02-27T14:53:25.903Z,54.50
2023-02-27T14:57:16.859Z,54.44
2023-02-27T15:01:04.359Z,54.00
2023-02-27T15:04:56.858Z,54.09
2023-02-27T15:08:41.788Z,59.43
2023-02-27T15:12:27.642Z,58.03
2023-02-27T15:16:28.995Z,55.78
2023-02-27T15:20:25.516Z,54.27
2023-02-27T15:24:18.856Z,53.36
2023-02-27T15:28:08.587Z,53.94
2023-02-27T15:31:52.015Z,54.22
2023-02-27T15:35:37.427Z,55.38
2023-02-27T15:39:22.348Z,55.27
2023-02-27T15:43:06.625Z,56.87
2023-02-27T15:46:49.638Z,56.72
2023-02-27T15:50:34.531Z,56.70
2023-02-27T15:54:17.318Z,55.47
2023-02-27T15:58:03.346Z,56.52
2023-02-27T16:01:49.666Z,56.51
2023-02-27T16:05:36.223Z,57.10
2023-02-27T16:09:23.347Z,57.84
2023-02-27T16:13:31.214Z,57.17
2023-02-27T16:17:29.666Z,57.82
2023-02-27T16:21:16.583Z,57.45
2023-02-27T16:25:10.149Z,58.58
2023-02-27T16:28:55.244Z,58.38
2023-02-27T16:32:43.911Z,58.21
2023-02-27T16:36:28.093Z,57.00
2023-02-27T16:40:14.934Z,56.22
2023-02-27T16:43:57.648Z,56.49
2023-02-27T16:47:41.674Z,57.16
2023-02-27T16:51:26.294Z,57.46
2023-02-27T16:55:09.888Z,57.80
2023-02-27T16:58:52.940Z,57.59
2023-02-27T17:02:35.791Z,57.87
2023-02-27T17:06:19.822Z,58.02
2023-02-27T17:10:02.491Z,58.33
2023-02-27T17:13:45.224Z,58.32
2023-02-27T17:17:27.851Z,57.91
2023-02-27T17:21:10.505Z,64.74
2023-02-27T17:24:54.537Z,64.16
2023-02-27T17:28:37.158Z,58.92
2023-02-27T17:32:19.903Z,58.39
2023-02-27T17:36:03.345Z,59.02
2023-02-27T17:39:46.050Z,59.86
2023-02-27T17:43:30.020Z,60.26
2023-02-27T17:47:12.765Z,60.51
2023-02-27T17:50:55.422Z,60.32
2023-02-27T17:54:38.222Z,61.42
2023-02-27T17:58:20.885Z,61.49
2023-02-27T18:02:04.883Z,62.36
2023-02-27T18:05:51.947Z,62.29
2023-02-27T18:09:34.679Z,63.39
2023-02-27T18:13:18.606Z,63.61
2023-02-27T18:17:01.309Z,64.54
2023-02-27T18:20:45.526Z,64.59
2023-02-27T18:24:28.165Z,64.21
2023-02-27T18:28:11.845Z,64.30
2023-02-27T18:31:54.900Z,63.85
2023-02-27T18:35:37.571Z,63.29
2023-02-27T18:39:22.801Z,63.54
2023-02-27T18:43:05.492Z,63.06
2023-02-27T18:46:48.331Z,63.28
2023-02-27T18:50:30.998Z,64.18
2023-02-27T18:54:14.264Z,65.61
2023-02-27T18:57:58.233Z,65.20
2023-02-27T19:01:40.906Z,66.54
2023-02-27T19:05:23.553Z,67.53
2023-02-27T19:09:06.820Z,68.75
2023-02-27T19:12:51.078Z,69.48
2023-02-27T19:16:35.380Z,69.96
2023-02-27T19:20:18.589Z,70.02
2023-02-27T19:24:01.822Z,70.35
2023-02-27T19:27:44.772Z,70.63
2023-02-27T19:31:28.592Z,69.97
2023-02-27T19:35:15.220Z,70.69
2023-02-27T19:38:58.290Z,69.97
2023-02-27T19:42:40.932Z,70.09
2023-02-27T19:46:25.372Z,69.21
2023-02-27T19:50:08.940Z,69.54
2023-02-27T19:53:53.777Z,69.36
2023-02-27T19:57:36.857Z,69.50
2023-02-27T20:01:23.522Z,70.46
2023-02-27T20:05:06.818Z,70.21
2023-02-27T20:08:49.532Z,69.24
2023-02-27T20:12:33.531Z,68.91
2023-02-27T20:16:20.629Z,68.22
2023-02-27T20:20:04.786Z,68.77
2023-02-27T20:23:48.759Z,68.04
2023-02-27T20:27:32.816Z,67.85
2023-02-27T20:31:16.564Z,68.44
2023-02-27T20:34:59.265Z,67.58
2023-02-27T20:38:42.517Z,67.04
2023-02-27T20:42:25.189Z,66.06
2023-02-27T20:46:11.590Z,66.25
2023-02-27T20:49:54.276Z,67.29
2023-02-27T20:53:37.319Z,66.28
2023-02-27T20:57:19.940Z,66.07
2023-02-27T21:01:04.383Z,66.21
2023-02-27T21:04:50.605Z,65.55
2023-02-27T21:08:33.334Z,65.81
2023-02-27T21:12:16.081Z,66.11
2023-02-27T21:16:00.900Z,69.86
2023-02-27T21:19:43.590Z,69.11
2023-02-27T21:23:27.718Z,64.53
2023-02-27T21:27:10.491Z,65.97
2023-02-27T21:30:54.457Z,65.78
2023-02-27T21:34:37.176Z,65.17
2023-02-27T21:38:19.879Z,68.24
2023-02-27T21:42:03.932Z,70.31
2023-02-27T21:45:51.524Z,67.06
2023-02-27T21:49:34.378Z,63.05
2023-02-27T21:53:17.013Z,63.71
2023-02-27T21:57:01.852Z,63.57
2023-02-27T22:00:45.788Z,64.19
2023-02-27T22:04:28.481Z,64.23
2023-02-27T22:08:11.206Z,64.35
2023-02-27T22:11:53.864Z,64.14
2023-02-27T22:15:36.751Z,64.48
2023-02-27T22:19:21.969Z,64.19
2023-02-27T22:23:04.613Z,65.01
2023-02-27T22:26:47.736Z,63.84
2023-02-27T22:30:30.933Z,64.51
2023-02-27T22:34:17.849Z,64.22
2023-02-27T22:38:01.962Z,64.25
2023-02-27T22:41:46.042Z,64.28
2023-02-27T22:45:28.659Z,64.93
2023-02-27T22:49:12.985Z,63.74
2023-02-27T22:52:55.634Z,64.59
2023-02-27T22:56:39.690Z,64.64
2023-02-27T23:00:22.783Z,64.34
2023-02-27T23:04:07.276Z,64.31
2023-02-27T23:07:49.959Z,64.26
2023-02-27T23:11:32.926Z,64.80
2023-02-27T23:15:17.102Z,64.34
2023-02-27T23:19:00.584Z,64.53
2023-02-27T23:22:43.201Z,64.29
2023-02-27T23:26:28.607Z,64.90
2023-02-27T23:30:12.787Z,64.14
2023-02-27T23:33:56.761Z,64.24
2023-02-27T23:37:39.584Z,64.53
2023-02-27T23:41:22.239Z,64.02
2023-02-27T23:45:05.413Z,64.43
2023-02-27T23:48:48.725Z,64.37
2023-02-27T23:52:32.807Z,64.63
2023-02-27T23:56:17.977Z,64.32
